Time;durP1;ratioP1;P1;durP2;ratioP2;P2;SDS_P1;SDS_P2;PMS_P1;PMS_P2;Temp;Humidity;BMP_temperature;BMP_pressure;BME280_temperature;BME280_humidity;BME280_pressure;Samples;Min_cycle;Max_cycle;Signal;HPM_P1;HPM_P2
2022/07/17 00:00:16;;;;;;;1.17;0.82;;;;;;;26.39;40.44;102633.34;5028884;28;20122;-74
2022/07/17 00:02:41;;;;;;;1.48;0.90;;;;;;;26.38;40.52;102626.25;5029342;28;20029;-75
2022/07/17 00:05:07;;;;;;;1.35;0.80;;;;;;;26.38;40.59;102627.13;5028864;28;20033;-75
2022/07/17 00:07:32;;;;;;;1.38;0.80;;;;;;;26.36;40.21;102634.28;5029083;28;20376;-75
2022/07/17 00:09:58;;;;;;;1.45;0.70;;;;;;;26.37;40.40;102627.16;5028461;28;20040;-75
2022/07/17 00:12:23;;;;;;;1.67;0.90;;;;;;;26.36;40.37;102625.38;5029213;28;20025;-75
2022/07/17 00:14:49;;;;;;;0.80;0.60;;;;;;;26.35;40.41;102624.50;5028794;28;20723;-75
2022/07/17 00:17:14;;;;;;;1.17;0.70;;;;;;;26.34;40.52;102625.44;5029039;28;20140;-74
2022/07/17 00:19:40;;;;;;;1.15;0.80;;;;;;;26.33;40.47;102617.47;5028856;28;20033;-75
2022/07/17 00:22:06;;;;;;;1.63;0.80;;;;;;;26.34;40.41;102616.56;5028259;28;20478;-74
2022/07/17 00:24:32;;;;;;;1.00;0.80;;;;;;;26.33;40.43;102614.78;5029022;28;20026;-75
2022/07/17 00:26:58;;;;;;;1.13;0.70;;;;;;;26.31;40.62;102612.13;5028738;28;20037;-75
2022/07/17 00:29:23;;;;;;;1.13;0.70;;;;;;;26.33;40.55;102614.78;5028686;28;20053;-74
2022/07/17 00:31:49;;;;;;;1.02;0.68;;;;;;;26.31;40.47;102613.94;5028815;28;20037;-74
2022/07/17 00:34:15;;;;;;;1.33;0.75;;;;;;;26.32;40.49;102623.72;5028624;28;20029;-75
2022/07/17 00:36:40;;;;;;;1.15;0.77;;;;;;;26.30;40.50;102617.53;5030578;28;20033;-74
2022/07/17 00:39:05;;;;;;;1.40;0.80;;;;;;;26.30;40.56;102609.50;5031950;28;20037;-74
2022/07/17 00:41:31;;;;;;;1.40;0.70;;;;;;;26.28;40.56;102609.56;5032342;28;20033;-75
2022/07/17 00:44:07;;;;;;;1.20;0.70;;;;;;;26.28;40.63;102611.34;5030480;28;20146;-74
2022/07/17 00:46:33;;;;;;;0.90;0.60;;;;;;;26.28;40.73;102609.56;5031814;28;20030;-74
2022/07/17 00:48:58;;;;;;;1.13;0.70;;;;;;;26.28;40.47;102614.03;5032373;28;20029;-74
2022/07/17 00:51:24;;;;;;;1.80;0.90;;;;;;;26.26;40.57;102606.03;5031499;28;20029;-75
2022/07/17 00:53:51;;;;;;;1.02;0.77;;;;;;;26.27;40.47;102615.81;5030526;28;20093;-74
2022/07/17 00:56:17;;;;;;;1.00;0.80;;;;;;;26.27;40.54;102607.78;5032110;28;20037;-74
2022/07/17 00:58:44;;;;;;;0.98;0.77;;;;;;;26.26;40.44;102608.72;5030609;28;20033;-74
2022/07/17 01:01:09;;;;;;;1.23;0.80;;;;;;;26.24;40.56;102610.53;5031080;28;20492;-74
2022/07/17 01:03:35;;;;;;;1.20;0.80;;;;;;;26.23;40.54;102611.41;5031818;28;20088;-74
2022/07/17 01:06:01;;;;;;;1.30;0.80;;;;;;;26.23;40.77;102615.00;5031974;28;20079;-75
2022/07/17 01:08:27;;;;;;;1.35;0.70;;;;;;;26.19;40.65;102602.59;5031972;28;20025;-75
2022/07/17 01:10:52;;;;;;;1.13;0.70;;;;;;;26.21;40.54;102608.78;5031581;28;20732;-75
2022/07/17 01:13:18;;;;;;;0.95;0.60;;;;;;;26.20;40.72;102606.16;5031904;28;20048;-74
2022/07/17 01:15:44;;;;;;;1.00;0.80;;;;;;;26.20;40.80;102603.47;5031399;28;20128;-74
2022/07/17 01:18:11;;;;;;;1.35;0.80;;;;;;;26.18;40.58;102606.19;5030015;28;20044;-74
2022/07/17 01:20:39;;;;;;;1.10;0.80;;;;;;;26.19;40.76;102601.72;5031386;28;20037;-74
2022/07/17 01:23:05;;;;;;;1.33;0.80;;;;;;;26.17;40.82;102598.19;5031506;28;20099;-74
2022/07/17 01:25:31;;;;;;;2.00;0.90;;;;;;;26.17;40.74;102598.19;5031748;28;20782;-74
2022/07/17 01:27:56;;;;;;;1.15;0.80;;;;;;;26.16;40.72;102602.69;5031264;28;20033;-74
2022/07/17 01:30:22;;;;;;;1.63;0.80;;;;;;;26.18;40.59;102607.97;5031156;28;20083;-75
2022/07/17 01:32:47;;;;;;;3.78;0.70;;;;;;;26.16;40.61;102600.00;5031199;28;20029;-74
2022/07/17 01:35:15;;;;;;;2.75;0.73;;;;;;;26.15;40.72;102605.38;5031475;28;20036;-74
2022/07/17 01:37:41;;;;;;;1.67;0.80;;;;;;;26.14;40.64;102612.53;5031416;28;20040;-74
2022/07/17 01:40:09;;;;;;;1.13;0.68;;;;;;;26.13;40.69;102613.44;5029398;28;20388;-74
2022/07/17 01:42:35;;;;;;;1.10;0.80;;;;;;;26.12;40.70;102613.47;5029793;28;20029;-74
2022/07/17 01:45:01;;;;;;;1.00;0.70;;;;;;;26.13;40.76;102615.22;5030812;28;20099;-74
2022/07/17 01:47:26;;;;;;;1.25;0.80;;;;;;;26.10;40.77;102612.66;5030043;28;20029;-74
2022/07/17 01:49:54;;;;;;;1.58;0.80;;;;;;;26.11;40.70;102620.59;5031134;28;20104;-75
2022/07/17 01:52:21;;;;;;;1.63;0.90;;;;;;;26.11;40.88;102619.72;5030307;28;20035;-75
2022/07/17 01:54:47;;;;;;;1.27;0.70;;;;;;;26.08;40.80;102614.47;5030690;28;20130;-74
2022/07/17 01:57:13;;;;;;;1.42;0.88;;;;;;;26.08;40.79;102626.03;5029792;28;20083;-74
2022/07/17 01:59:39;;;;;;;1.05;0.63;;;;;;;26.07;40.84;102626.94;5030641;28;20108;-74
2022/07/17 02:02:06;;;;;;;1.00;0.70;;;;;;;26.06;40.67;102624.31;5029110;28;20029;-74
2022/07/17 02:04:35;;;;;;;1.10;0.80;;;;;;;26.07;40.64;102626.06;5030491;28;20079;-74
2022/07/17 02:07:02;;;;;;;1.20;0.80;;;;;;;26.04;40.90;102629.72;5030768;28;20082;-74
2022/07/17 02:09:27;;;;;;;1.80;0.82;;;;;;;26.05;40.97;102630.56;5030401;28;20029;-74
2022/07/17 02:11:53;;;;;;;1.67;0.80;;;;;;;26.04;40.80;102631.50;5030404;28;20494;-75
2022/07/17 02:14:18;;;;;;;1.17;0.80;;;;;;;26.04;40.88;102631.50;5028930;28;20037;-74
2022/07/17 02:16:44;;;;;;;1.60;0.80;;;;;;;26.02;40.93;102623.50;5030614;28;20036;-74
2022/07/17 02:19:09;;;;;;;1.60;0.75;;;;;;;26.00;40.75;102628.00;5028888;28;20029;-74
2022/07/17 02:21:35;;;;;;;1.88;0.93;;;;;;;25.99;40.70;102628.91;5029836;28;20034;-74
2022/07/17 02:24:00;;;;;;;1.08;0.80;;;;;;;25.98;40.82;102635.19;5030442;28;20041;-74
2022/07/17 02:26:25;;;;;;;2.45;0.70;;;;;;;26.02;40.54;102636.00;5030584;28;20031;-74
2022/07/17 02:28:51;;;;;;;1.10;0.80;;;;;;;25.99;40.77;102630.69;5028682;28;20504;-74
2022/07/17 02:31:16;;;;;;;1.40;0.80;;;;;;;25.99;40.88;102636.94;5030054;28;20052;-75
2022/07/17 02:33:41;;;;;;;1.00;0.70;;;;;;;26.00;40.80;102633.34;5029550;28;20126;-74
2022/07/17 02:36:07;;;;;;;1.27;0.80;;;;;;;25.99;40.80;102628.91;5030454;28;20061;-74
2022/07/17 02:38:33;;;;;;;0.93;0.70;;;;;;;25.99;40.90;102622.69;5030114;28;20051;-74
2022/07/17 02:40:58;;;;;;;0.90;0.70;;;;;;;25.97;40.87;102627.22;5030256;28;20395;-74
2022/07/17 02:43:24;;;;;;;1.60;0.90;;;;;;;25.96;40.83;102628.13;5030154;28;20369;-74
2022/07/17 02:45:49;;;;;;;1.05;0.77;;;;;;;25.96;40.83;102633.47;5029306;28;20033;-74
2022/07/17 02:48:14;;;;;;;1.20;0.80;;;;;;;25.94;40.95;102629.94;5029992;28;20036;-74
2022/07/17 02:50:40;;;;;;;1.30;0.90;;;;;;;25.92;40.66;102629.09;5030051;28;20022;-74
2022/07/17 02:53:05;;;;;;;0.77;0.65;;;;;;;25.93;40.99;102621.03;5029846;28;20048;-74
2022/07/17 02:55:30;;;;;;;1.45;0.70;;;;;;;25.93;40.85;102622.81;5028315;28;20506;-74
2022/07/17 02:57:56;;;;;;;1.10;0.80;;;;;;;25.94;40.78;102608.56;5029852;28;20073;-74
2022/07/17 03:00:21;;;;;;;1.10;0.80;;;;;;;25.92;40.77;102610.41;5028929;28;20112;-74
2022/07/17 03:02:47;;;;;;;0.82;0.70;;;;;;;25.93;40.95;102612.13;5028249;28;20040;-74
2022/07/17 03:05:15;;;;;;;1.35;0.70;;;;;;;25.90;41.05;102615.78;5029403;28;20120;-74
2022/07/17 03:07:40;;;;;;;1.02;0.80;;;;;;;25.89;40.98;102618.47;5029245;28;20380;-74
2022/07/17 03:10:07;;;;;;;1.33;0.75;;;;;;;25.89;40.63;102619.34;5029649;28;20034;-74
2022/07/17 03:12:32;;;;;;;1.15;0.70;;;;;;;25.89;40.83;102616.69;5029755;28;20041;-74
2022/07/17 03:14:57;;;;;;;1.27;0.88;;;;;;;25.89;40.78;102619.34;5029356;28;20029;-74
2022/07/17 03:17:23;;;;;;;1.02;0.70;;;;;;;25.90;40.78;102620.22;5029223;28;20029;-73
2022/07/17 03:19:48;;;;;;;2.35;0.80;;;;;;;25.89;40.95;102626.50;5029527;28;20120;-74
2022/07/17 03:22:13;;;;;;;1.33;0.80;;;;;;;25.87;40.88;102629.19;5029312;28;20026;-74
2022/07/17 03:24:39;;;;;;;0.98;0.80;;;;;;;25.86;40.78;102635.44;5028336;28;20033;-74
2022/07/17 03:27:04;;;;;;;0.88;0.80;;;;;;;25.87;40.61;102629.19;5028991;28;20510;-74
2022/07/17 03:29:30;;;;;;;1.65;0.90;;;;;;;25.85;40.78;102631.91;5028523;28;20040;-74
2022/07/17 03:31:55;;;;;;;1.92;0.80;;;;;;;25.85;40.69;102629.25;5029369;28;20049;-74
2022/07/17 03:34:20;;;;;;;1.00;0.80;;;;;;;25.84;40.77;102627.47;5028156;28;20478;-74
2022/07/17 03:36:47;;;;;;;1.40;0.77;;;;;;;25.84;40.85;102621.25;5028821;28;20029;-73
2022/07/17 03:39:13;;;;;;;1.08;0.80;;;;;;;25.82;40.76;102625.75;5028916;28;20460;-73
2022/07/17 03:41:38;;;;;;;1.20;0.70;;;;;;;25.83;40.90;102630.19;5029240;28;20021;-74
2022/07/17 03:44:04;;;;;;;1.23;0.70;;;;;;;25.80;40.78;102638.25;5028186;28;20029;-73
2022/07/17 03:46:29;;;;;;;1.25;0.80;;;;;;;25.80;40.95;102635.56;5029360;28;20043;-74
2022/07/17 03:48:55;;;;;;;1.65;0.80;;;;;;;25.80;41.04;102646.25;5029126;28;20034;-74
2022/07/17 03:51:20;;;;;;;0.98;0.80;;;;;;;25.79;40.64;102647.19;5029207;28;20546;-74
2022/07/17 03:53:46;;;;;;;2.03;0.80;;;;;;;25.78;40.78;102632.09;5027482;28;20050;-74
2022/07/17 03:56:11;;;;;;;0.95;0.70;;;;;;;25.79;40.97;102633.84;5028735;28;20025;-74
2022/07/17 03:58:36;;;;;;;1.38;0.77;;;;;;;25.75;40.81;102629.47;5028683;28;20029;-74
2022/07/17 04:01:02;;;;;;;0.90;0.80;;;;;;;25.76;40.91;102640.13;5028798;28;20059;-73
2022/07/17 04:03:28;;;;;;;1.20;0.80;;;;;;;25.74;40.93;102641.06;5029125;28;20048;-74
2022/07/17 04:05:53;;;;;;;1.55;0.80;;;;;;;25.77;40.82;102647.22;5028768;28;20040;-73
2022/07/17 04:08:19;;;;;;;1.05;0.70;;;;;;;25.75;40.74;102641.03;5027505;28;20553;-74
2022/07/17 04:10:45;;;;;;;1.58;0.75;;;;;;;25.75;40.92;102633.00;5029162;28;20036;-73
2022/07/17 04:13:11;;;;;;;1.67;0.80;;;;;;;25.75;41.01;102627.66;5032554;28;20025;-74
2022/07/17 04:18:23;;;;;;;1.38;0.80;;;;;;;25.72;40.81;102638.44;5033136;28;20048;-74
2022/07/17 04:20:49;;;;;;;0.98;0.70;;;;;;;25.72;40.90;102642.91;5030905;28;20029;-74
2022/07/17 04:23:15;;;;;;;1.77;0.80;;;;;;;25.72;40.82;102656.25;5031278;28;20033;-74
2022/07/17 04:25:41;;;;;;;1.35;0.77;;;;;;;25.68;40.71;102649.19;5031770;28;20400;-74
2022/07/17 04:28:08;;;;;;;1.08;0.70;;;;;;;25.69;40.90;102645.63;5032086;28;20030;-74
2022/07/17 04:30:33;;;;;;;1.35;0.70;;;;;;;25.71;40.95;102642.03;5032379;28;20575;-74
2022/07/17 04:32:59;;;;;;;0.82;0.70;;;;;;;25.71;40.61;102647.38;5031217;28;20167;-74
2022/07/17 04:35:24;;;;;;;0.93;0.70;;;;;;;25.68;40.76;102644.75;5032376;28;20087;-74
2022/07/17 04:37:49;;;;;;;1.58;0.75;;;;;;;25.68;40.95;102643.84;5031961;28;20064;-74
2022/07/17 04:40:15;;;;;;;0.65;0.60;;;;;;;25.69;40.78;102649.19;5032028;28;20408;-74
2022/07/17 04:42:40;;;;;;;1.00;0.75;;;;;;;25.67;40.84;102647.47;5031984;28;20037;-74
2022/07/17 04:45:06;;;;;;;1.63;0.70;;;;;;;25.68;40.90;102665.22;5032034;28;20029;-74
2022/07/17 04:47:32;;;;;;;1.17;0.80;;;;;;;25.66;41.04;102665.28;5030958;28;20041;-74
2022/07/17 04:49:57;;;;;;;1.30;0.90;;;;;;;25.66;41.08;102662.63;5031933;28;20025;-74
2022/07/17 04:52:23;;;;;;;0.88;0.70;;;;;;;25.64;40.75;102656.41;5031939;28;20032;-74
2022/07/17 04:54:48;;;;;;;0.90;0.70;;;;;;;25.66;40.81;102664.41;5031912;28;20041;-73
2022/07/17 04:57:14;;;;;;;1.13;0.80;;;;;;;25.68;40.88;102667.91;5031505;28;20044;-74
2022/07/17 04:59:39;;;;;;;0.90;0.70;;;;;;;25.65;40.78;102676.88;5031719;28;20037;-74
2022/07/17 05:02:05;;;;;;;1.20;0.80;;;;;;;25.66;40.70;102667.97;5031665;28;20380;-75
2022/07/17 05:04:30;;;;;;;1.63;0.70;;;;;;;25.68;40.72;102660.78;5031957;28;20107;-74
2022/07/17 05:06:55;;;;;;;1.10;0.70;;;;;;;25.65;40.71;102652.84;5031154;28;20060;-75
2022/07/17 05:09:21;;;;;;;0.95;0.73;;;;;;;25.64;40.91;102664.44;5031811;28;20116;-74
2022/07/17 05:11:47;;;;;;;0.98;0.70;;;;;;;25.66;40.61;102661.72;5031689;28;20040;-74
2022/07/17 05:14:12;;;;;;;0.93;0.70;;;;;;;25.64;40.94;102648.41;5030138;28;20668;-75
2022/07/17 05:16:39;;;;;;;1.10;0.80;;;;;;;25.65;40.67;102644.81;5031729;28;20083;-74
2022/07/17 05:19:04;;;;;;;1.38;0.75;;;;;;;25.65;40.74;102636.81;5029555;28;20665;-75
2022/07/17 05:21:30;;;;;;;2.08;0.80;;;;;;;25.63;40.93;102632.41;5030206;28;20026;-74
2022/07/17 05:23:55;;;;;;;1.30;0.80;;;;;;;25.66;40.48;102638.56;5031297;28;20693;-75
2022/07/17 05:26:20;;;;;;;1.27;0.65;;;;;;;25.63;40.79;102645.75;5031329;28;20036;-77
2022/07/17 05:28:46;;;;;;;1.10;0.75;;;;;;;25.63;40.65;102649.31;5030759;28;20029;-74
2022/07/17 05:31:11;;;;;;;1.58;0.70;;;;;;;25.63;40.72;102648.44;5030121;28;20037;-74
2022/07/17 05:33:36;;;;;;;0.90;0.70;;;;;;;25.62;40.92;102654.66;5029969;28;20043;-75
2022/07/17 05:36:02;;;;;;;0.90;0.70;;;;;;;25.62;40.88;102649.34;5030792;28;20053;-75
2022/07/17 05:38:27;;;;;;;1.10;0.75;;;;;;;25.63;40.67;102657.31;5031317;28;20112;-75
2022/07/17 05:40:53;;;;;;;1.30;0.80;;;;;;;25.60;40.83;102661.84;5030987;28;20025;-75
2022/07/17 05:43:18;;;;;;;0.75;0.65;;;;;;;25.60;40.94;102656.53;5030830;28;20649;-74
2022/07/17 05:45:43;;;;;;;1.23;0.70;;;;;;;25.64;40.68;102658.19;5013340;28;20163;-74
2022/07/17 05:48:09;;;;;;;1.00;0.70;;;;;;;25.63;40.74;102659.09;5030565;28;20368;-74
2022/07/17 05:50:35;;;;;;;1.17;0.70;;;;;;;25.62;40.82;102666.25;5013095;28;20055;-74
2022/07/17 05:53:00;;;;;;;1.65;0.80;;;;;;;25.63;40.62;102667.13;5029428;28;20061;-74
2022/07/17 05:55:26;;;;;;;2.65;0.70;;;;;;;25.61;40.49;102651.16;5030736;28;20679;-74
2022/07/17 05:57:51;;;;;;;1.10;0.80;;;;;;;25.60;40.81;102662.75;5030368;28;20041;-74
2022/07/17 06:00:18;;;;;;;0.90;0.80;;;;;;;25.57;40.91;102657.44;5030882;28;20025;-75
2022/07/17 06:02:43;;;;;;;1.20;0.70;;;;;;;25.61;40.64;102666.28;5030945;28;20082;-75
2022/07/17 06:05:09;;;;;;;0.80;0.65;;;;;;;25.64;40.73;102666.22;5030518;28;20037;-74
2022/07/17 06:07:37;;;;;;;0.93;0.70;;;;;;;25.65;40.73;102667.97;5029084;28;20037;-74
2022/07/17 06:10:06;;;;;;;1.00;0.80;;;;;;;25.64;40.59;102666.22;5030674;28;20183;-74
2022/07/17 06:12:31;;;;;;;1.23;0.73;;;;;;;25.71;40.57;102668.72;5029140;28;20407;-75
2022/07/17 06:14:56;;;;;;;1.08;0.70;;;;;;;25.79;40.39;102673.91;5030243;28;20043;-75
2022/07/17 06:17:22;;;;;;;2.83;0.88;;;;;;;25.87;40.42;102677.28;5030013;28;20369;-74
2022/07/17 06:19:51;;;;;;;1.58;0.77;;;;;;;26.00;39.98;102681.44;5029155;28;20057;-75
2022/07/17 06:22:18;;;;;;;1.00;0.70;;;;;;;26.06;39.87;102680.44;5030382;28;20021;-75
2022/07/17 06:24:44;;;;;;;1.02;0.80;;;;;;;26.09;39.74;102688.41;5030432;28;20021;-76
2022/07/17 06:27:09;;;;;;;1.30;0.80;;;;;;;26.03;39.79;102692.09;5029245;28;20047;-75
2022/07/17 06:29:34;;;;;;;1.25;0.75;;;;;;;25.99;39.64;102695.72;5030351;28;20099;-75
2022/07/17 06:32:00;;;;;;;1.45;0.80;;;;;;;25.95;39.75;102701.19;5030334;28;20056;-75
2022/07/17 06:34:25;;;;;;;1.80;0.80;;;;;;;25.92;40.32;102710.16;5029501;28;20079;-75
2022/07/17 06:36:51;;;;;;;1.00;0.60;;;;;;;25.96;40.11;102703.81;5029700;28;20914;-75
2022/07/17 06:39:16;;;;;;;1.73;0.80;;;;;;;26.00;39.95;102715.31;5029835;28;20052;-75
2022/07/17 06:41:41;;;;;;;1.05;0.75;;;;;;;26.03;39.84;102713.47;5028667;28;20033;-75
2022/07/17 06:44:07;;;;;;;1.27;0.60;;;;;;;26.10;39.90;102707.09;5029783;28;20542;-75
2022/07/17 06:46:32;;;;;;;1.60;0.70;;;;;;;26.12;40.00;102712.38;5029312;28;20033;-75
2022/07/17 06:48:57;;;;;;;1.30;0.80;;;;;;;26.11;40.06;102711.50;5029898;28;20029;-75
2022/07/17 06:51:23;;;;;;;1.00;0.60;;;;;;;26.11;39.91;102706.16;5024351;28;20025;-75
2022/07/17 06:53:48;;;;;;;1.38;0.70;;;;;;;26.11;39.99;102703.47;5029519;28;20056;-75
2022/07/17 06:56:13;;;;;;;1.35;0.80;;;;;;;26.16;40.03;102700.72;5029733;28;20048;-76
2022/07/17 06:58:39;;;;;;;0.98;0.70;;;;;;;26.13;39.82;102693.63;5029005;28;20128;-75
2022/07/17 07:01:04;;;;;;;0.88;0.70;;;;;;;26.18;40.03;102691.72;5029612;28;20403;-76
2022/07/17 07:03:29;;;;;;;1.00;0.70;;;;;;;26.23;39.99;102695.22;5029781;28;20450;-75
2022/07/17 07:05:55;;;;;;;1.35;0.80;;;;;;;26.22;40.06;102697.91;5029425;28;20029;-75
2022/07/17 07:08:20;;;;;;;1.27;0.70;;;;;;;26.21;40.13;102701.50;5029604;28;20029;-75
2022/07/17 07:10:46;;;;;;;1.60;0.70;;;;;;;26.21;40.06;102696.16;5028701;28;20117;-75
2022/07/17 07:13:12;;;;;;;0.90;0.70;;;;;;;26.19;40.41;102696.16;5028965;28;20036;-75
2022/07/17 07:15:38;;;;;;;2.65;0.75;;;;;;;26.18;40.27;102694.41;5028435;28;20031;-76
2022/07/17 07:18:03;;;;;;;0.70;0.60;;;;;;;26.23;40.46;102699.63;5027927;28;20033;-76
2022/07/17 07:20:28;;;;;;;0.80;0.60;;;;;;;26.23;40.58;102692.53;5028511;28;20037;-75
2022/07/17 07:22:54;;;;;;;0.80;0.70;;;;;;;26.24;40.21;102698.75;5028934;28;20037;-75
2022/07/17 07:25:20;;;;;;;0.73;0.70;;;;;;;26.20;40.29;102699.72;5029398;28;20029;-75
2022/07/17 07:27:46;;;;;;;0.88;0.70;;;;;;;26.18;40.53;102698.88;5029039;28;20444;-75
2022/07/17 07:30:11;;;;;;;1.00;0.70;;;;;;;26.18;40.43;102694.41;5029252;28;20056;-76
2022/07/17 07:32:41;;;;;;;0.90;0.70;;;;;;;26.19;40.53;102695.28;5028844;28;20021;-75
2022/07/17 07:35:07;;;;;;;1.63;0.60;;;;;;;26.12;40.63;102680.28;5028549;28;20113;-75
2022/07/17 07:37:33;;;;;;;0.70;0.60;;;;;;;26.13;40.60;102685.63;5029189;28;20454;-76
2022/07/17 07:39:59;;;;;;;1.25;0.60;;;;;;;26.12;40.65;102691.88;5027987;28;20108;-77
2022/07/17 07:42:25;;;;;;;0.88;0.65;;;;;;;26.17;40.58;102703.34;5028295;28;20117;-75
2022/07/17 07:44:51;;;;;;;1.17;0.63;;;;;;;26.19;40.39;102693.50;5029633;28;20056;-76
2022/07/17 07:47:17;;;;;;;0.82;0.65;;;;;;;26.15;40.35;102698.94;5033355;28;20040;-76
2022/07/17 07:49:42;;;;;;;1.33;0.70;;;;;;;26.13;40.45;102707.00;5033077;28;20021;-76
2022/07/17 07:52:08;;;;;;;1.15;0.70;;;;;;;26.13;40.57;102698.09;5032181;28;20029;-76
2022/07/17 07:54:33;;;;;;;1.15;0.70;;;;;;;26.14;40.49;102697.19;5032785;28;20073;-76
2022/07/17 07:56:59;;;;;;;0.70;0.60;;;;;;;26.16;40.43;102700.72;5032905;28;20136;-76
2022/07/17 07:59:24;;;;;;;1.08;0.68;;;;;;;26.22;40.27;102697.91;5033130;28;20076;-77
2022/07/17 08:01:50;;;;;;;0.75;0.60;;;;;;;26.26;40.39;102702.28;5032392;28;20057;-75
2022/07/17 08:04:16;;;;;;;0.77;0.70;;;;;;;26.31;40.35;102708.41;5031467;28;20072;-76
2022/07/17 08:06:41;;;;;;;1.13;0.70;;;;;;;26.33;40.21;102711.94;5032912;28;20395;-75
2022/07/17 08:09:07;;;;;;;0.93;0.63;;;;;;;26.33;40.27;102717.28;5033137;28;20034;-76
2022/07/17 08:11:32;;;;;;;1.10;0.70;;;;;;;26.35;40.32;102715.44;5032750;28;20025;-76
2022/07/17 08:13:59;;;;;;;0.73;0.60;;;;;;;26.35;40.41;102715.44;5030876;28;20124;-75
2022/07/17 08:16:24;;;;;;;1.00;0.60;;;;;;;26.37;40.37;102716.28;5032688;28;20057;-76
2022/07/17 08:18:49;;;;;;;0.77;0.60;;;;;;;26.37;40.46;102716.28;5032688;28;20069;-75
2022/07/17 08:21:15;;;;;;;1.20;0.73;;;;;;;26.38;40.40;102723.41;5032443;28;20036;-76
2022/07/17 08:23:40;;;;;;;1.02;0.70;;;;;;;26.36;40.38;102719.88;5032080;28;20041;-76
2022/07/17 08:26:05;;;;;;;1.67;0.70;;;;;;;26.39;40.59;102719.81;5032690;28;20412;-76
2022/07/17 08:28:31;;;;;;;1.20;0.70;;;;;;;26.38;40.42;102723.41;5032345;28;20092;-75
2022/07/17 08:30:56;;;;;;;2.15;0.70;;;;;;;26.38;40.56;102725.19;5030909;28;20483;-76
2022/07/17 08:33:22;;;;;;;1.00;0.70;;;;;;;26.38;40.67;102726.06;5032476;28;20407;-76
2022/07/17 08:35:47;;;;;;;0.90;0.70;;;;;;;26.38;40.65;102726.06;5032014;28;20025;-76
2022/07/17 08:38:12;;;;;;;1.10;0.60;;;;;;;26.38;40.65;102722.53;5032399;28;20061;-76
2022/07/17 08:40:39;;;;;;;0.75;0.70;;;;;;;26.39;40.56;102714.47;5032029;28;20132;-76
2022/07/17 08:43:06;;;;;;;1.10;0.65;;;;;;;26.44;40.81;102720.59;5031751;28;20041;-76
2022/07/17 08:45:32;;;;;;;1.10;0.68;;;;;;;26.46;40.60;102724.13;5032153;28;20083;-76
2022/07/17 08:48:00;;;;;;;1.00;0.70;;;;;;;26.50;40.62;102723.13;5030708;28;20060;-76
2022/07/17 08:50:30;;;;;;;0.77;0.60;;;;;;;26.51;40.45;102721.31;5031529;28;20037;-76
2022/07/17 08:52:55;;;;;;;0.98;0.60;;;;;;;26.50;40.51;102725.78;5031499;28;20407;-76
2022/07/17 08:55:21;;;;;;;0.90;0.70;;;;;;;26.54;40.56;102721.22;5031858;28;20030;-76
2022/07/17 08:57:46;;;;;;;0.95;0.70;;;;;;;26.57;40.49;102723.84;5030739;28;20033;-76
2022/07/17 09:00:15;;;;;;;0.88;0.60;;;;;;;26.57;40.48;102727.41;5030404;28;20511;-76
2022/07/17 09:02:52;;;;;;;1.58;0.70;;;;;;;26.60;40.49;102726.44;5030790;28;20048;-76
2022/07/17 09:05:22;;;;;;;1.00;0.70;;;;;;;26.61;40.46;102720.16;5030656;28;20053;-76
2022/07/17 09:07:47;;;;;;;0.90;0.70;;;;;;;26.64;40.69;102729.03;5030516;28;20029;-76
2022/07/17 09:10:13;;;;;;;0.70;0.60;;;;;;;26.64;40.52;102728.13;5032002;28;20035;-76
2022/07/17 09:12:38;;;;;;;1.13;0.60;;;;;;;26.64;40.57;102721.00;5030155;28;20025;-76
2022/07/17 09:15:22;;;;;;;0.98;0.70;;;;;;;26.65;40.49;102716.53;5031204;28;20033;-76
2022/07/17 09:17:52;;;;;;;1.50;0.70;;;;;;;26.66;40.60;102715.59;5031609;28;20152;-76
2022/07/17 09:20:19;;;;;;;0.65;0.60;;;;;;;26.66;40.60;102716.47;5031661;28;20498;-76
2022/07/17 09:22:58;;;;;;;0.85;0.60;;;;;;;26.69;40.55;102706.63;5031552;28;20030;-76
2022/07/17 09:25:36;;;;;;;0.70;0.60;;;;;;;26.71;40.62;102710.13;5026337;28;20060;-76
2022/07/17 09:28:04;;;;;;;0.70;0.60;;;;;;;26.72;40.61;102703.84;5030983;28;20459;-76
2022/07/17 09:30:31;;;;;;;0.85;0.68;;;;;;;26.73;40.44;102700.25;5031251;28;20494;-76
2022/07/17 09:32:56;;;;;;;1.20;0.70;;;;;;;26.73;40.59;102701.13;5029950;28;20095;-75
2022/07/17 09:35:23;;;;;;;1.10;0.60;;;;;;;26.75;40.68;102702.00;5031325;28;20583;-76
2022/07/17 09:37:52;;;;;;;0.70;0.60;;;;;;;26.76;40.64;102694.84;5028360;28;20029;-76
2022/07/17 09:43:02;;;;;;;;;;;;;;;26.79;40.44;102702.78;5031366;28;20421;-76
2022/07/17 09:45:27;;;;;;;0.80;0.68;;;;;;;26.79;40.62;102698.31;5031274;28;19992;-76
2022/07/17 09:47:54;;;;;;;1.20;0.70;;;;;;;26.81;40.66;102695.59;5030938;28;20072;-76
2022/07/17 09:50:21;;;;;;;1.00;0.70;;;;;;;26.80;40.67;102693.84;5030729;28;20037;-76
2022/07/17 09:52:49;;;;;;;1.45;0.70;;;;;;;26.81;40.64;102692.94;5029122;28;20507;-76
2022/07/17 09:55:16;;;;;;;0.60;0.57;;;;;;;26.83;40.65;102688.44;5029460;28;20033;-76
2022/07/17 09:57:46;;;;;;;0.80;0.60;;;;;;;26.82;40.90;102692.91;5029997;28;20105;-76
2022/07/17 10:00:15;;;;;;;0.80;0.60;;;;;;;26.83;40.75;102691.09;5030874;28;20368;-76
2022/07/17 10:02:41;;;;;;;1.50;0.60;;;;;;;26.84;40.71;102692.84;5030646;28;20052;-76
2022/07/17 10:05:11;;;;;;;0.88;0.60;;;;;;;26.86;40.57;102686.53;5030451;28;20029;-76
2022/07/17 10:07:40;;;;;;;0.90;0.70;;;;;;;26.88;40.57;102686.50;5030489;28;20032;-76
2022/07/17 10:10:07;;;;;;;1.27;0.60;;;;;;;26.89;40.57;102685.63;5029707;28;20033;-76
2022/07/17 10:12:33;;;;;;;0.80;0.70;;;;;;;26.90;40.63;102687.34;5030467;28;20027;-76
2022/07/17 10:14:58;;;;;;;0.80;0.60;;;;;;;26.92;40.65;102696.22;5030523;28;20648;-76
2022/07/17 10:17:24;;;;;;;1.17;0.70;;;;;;;26.93;40.74;102695.31;5012398;28;20037;-75
2022/07/17 10:19:53;;;;;;;0.98;0.60;;;;;;;26.92;40.46;102691.75;5030502;28;20542;-76
2022/07/17 10:22:19;;;;;;;1.17;0.70;;;;;;;26.95;40.68;102704.19;5030173;28;20108;-76
2022/07/17 10:24:57;;;;;;;0.80;0.60;;;;;;;26.95;40.79;102693.50;5030445;28;20026;-76
2022/07/17 10:27:25;;;;;;;1.17;0.70;;;;;;;26.95;40.34;102697.06;5030251;28;20079;-76
2022/07/17 10:30:09;;;;;;;1.02;0.60;;;;;;;26.97;40.55;102700.53;5030419;28;20555;-76
2022/07/17 10:32:35;;;;;;;;;;;;;;;26.99;40.63;102697.84;5030196;28;20025;-76
2022/07/17 10:35:03;;;;;;;0.90;0.63;;;;;;;26.99;40.51;102689.81;5030206;28;20364;-76
2022/07/17 10:37:38;;;;;;;0.85;0.60;;;;;;;26.98;40.71;102699.63;5030191;28;20021;-76
2022/07/17 10:40:10;;;;;;;0.80;0.60;;;;;;;26.99;40.60;102693.38;5029827;28;20136;-76
2022/07/17 10:42:51;;;;;;;0.85;0.60;;;;;;;27.02;40.64;102697.75;5029704;28;20084;-76
2022/07/17 10:45:23;;;;;;;0.50;0.50;;;;;;;27.00;40.63;102687.09;5029902;28;20025;-76
2022/07/17 10:47:56;;;;;;;0.93;0.65;;;;;;;27.03;40.70;102688.78;5029471;28;20025;-75
2022/07/17 10:50:29;;;;;;;0.90;0.52;;;;;;;27.03;40.74;102694.16;5029347;28;20104;-76
2022/07/17 10:53:02;;;;;;;1.15;0.63;;;;;;;27.05;40.74;102695.00;5029764;28;20069;-76
2022/07/17 10:55:28;;;;;;;0.73;0.57;;;;;;;27.05;40.48;102692.31;5029525;28;20092;-76
2022/07/17 10:57:55;;;;;;;0.75;0.60;;;;;;;27.05;40.58;102695.88;5028189;28;20380;-76
2022/07/17 11:00:21;;;;;;;0.77;0.60;;;;;;;27.09;40.72;102702.03;5029557;28;20029;-76
2022/07/17 11:02:47;;;;;;;1.40;0.70;;;;;;;27.10;40.67;102698.44;5029717;28;20764;-76
2022/07/17 11:05:14;;;;;;;0.50;0.50;;;;;;;27.12;40.66;102703.75;5029588;28;20121;-76
2022/07/17 11:07:56;;;;;;;0.77;0.60;;;;;;;27.13;40.60;102702.84;5029069;28;20079;-76
2022/07/17 11:10:25;;;;;;;0.70;0.60;;;;;;;27.13;40.73;102697.47;5027874;28;20118;-75
2022/07/17 11:12:51;;;;;;;0.90;0.70;;;;;;;27.13;40.61;102700.16;5029560;28;20036;-76
2022/07/17 11:15:16;;;;;;;0.82;0.60;;;;;;;27.14;40.53;102694.75;5029088;28;20026;-76
2022/07/17 11:17:47;;;;;;;1.10;0.70;;;;;;;27.14;40.72;102685.84;5029316;28;20463;-76
2022/07/17 11:20:13;;;;;;;0.80;0.60;;;;;;;27.16;40.71;102689.34;5029094;28;20044;-76
2022/07/17 11:22:39;;;;;;;1.05;0.70;;;;;;;27.16;40.50;102689.34;5029610;28;20025;-76
2022/07/17 11:25:05;;;;;;;0.70;0.55;;;;;;;27.18;40.45;102685.72;5027558;28;20033;-76
2022/07/17 11:27:31;;;;;;;0.77;0.65;;;;;;;27.17;40.76;102677.72;5028118;28;20033;-75